Mezhdurechenskiy, Russia
Current Conditions -  °F | °C
As of 9:30 PM on Sunday 25 Jan 2015 (Local Time) from USHH Reporting Station
Overcast Overcast  
Wind Chill: -13°   Ceiling: 8000
Heat Index:   Visibility: 4mi
Dew Point:   Wind: 16mph
Humidity: 78%   Direction: 220°SW
Pressure: 30.36"   Gusts: 22mph
Location:  59.6°N, 65.93°E
Report Text: USHH 251630Z 22007G10MPS 6000 SCT012 OVC080 M15/M18 Q1028 TEMPO1500 SN BKN007 RMK QFE767 24////42
Loading
Personal Weather Stations






























Interactive Weather Map New forecast layout! Learn more

10-Day Weather Forecast

Advertisements
Track Severe Weather on mobile